createdAt,value
2022-11-27T00:02:18.587Z,3.46
2022-11-27T00:04:52.127Z,3.35
2022-11-27T00:07:25.645Z,3.37
2022-11-27T00:09:52.781Z,3.31
2022-11-27T00:12:24.099Z,3.32
2022-11-27T00:14:55.620Z,3.21
2022-11-27T00:17:23.410Z,3.11
2022-11-27T00:19:54.295Z,2.97
2022-11-27T00:22:27.112Z,3.09
2022-11-27T00:25:00.177Z,3.15
2022-11-27T00:27:31.173Z,2.94
2022-11-27T00:30:01.909Z,2.76
2022-11-27T00:32:32.939Z,2.89
2022-11-27T00:35:03.124Z,3.08
2022-11-27T00:37:33.487Z,2.81
2022-11-27T00:40:02.113Z,2.84
2022-11-27T00:42:36.325Z,2.75
2022-11-27T00:45:08.026Z,2.84
2022-11-27T00:47:36.026Z,2.76
2022-11-27T00:50:07.776Z,2.64
2022-11-27T00:52:38.105Z,2.83
2022-11-27T00:55:12.673Z,2.84
2022-11-27T00:57:40.005Z,2.54
2022-11-27T01:00:11.038Z,2.48
2022-11-27T01:02:38.407Z,2.65
2022-11-27T01:05:10.511Z,2.70
2022-11-27T01:07:41.636Z,2.74
2022-11-27T01:10:12.070Z,2.65
2022-11-27T01:12:42.695Z,2.67
2022-11-27T01:15:13.355Z,2.74
2022-11-27T01:17:48.549Z,2.81
2022-11-27T01:20:23.603Z,2.71
2022-11-27T01:22:50.969Z,2.69
2022-11-27T01:25:26.919Z,2.62
2022-11-27T01:27:59.004Z,2.65
2022-11-27T01:30:29.893Z,2.63
2022-11-27T01:33:00.490Z,2.65
2022-11-27T01:35:33.655Z,2.62
2022-11-27T01:38:04.966Z,2.93
2022-11-27T01:40:36.415Z,2.73
2022-11-27T01:43:07.076Z,2.66
2022-11-27T01:45:43.037Z,2.73
2022-11-27T01:48:17.706Z,2.65
2022-11-27T01:50:53.975Z,2.81
2022-11-27T01:53:28.134Z,2.71
2022-11-27T01:56:00.585Z,2.76
2022-11-27T01:58:30.367Z,2.52
2022-11-27T02:01:03.620Z,2.53
2022-11-27T02:03:33.795Z,2.45
2022-11-27T02:06:01.902Z,2.44
2022-11-27T02:08:32.377Z,2.29
2022-11-27T02:11:15.338Z,2.48
2022-11-27T02:13:54.968Z,2.67
2022-11-27T02:16:36.706Z,2.74
2022-11-27T02:19:16.151Z,2.63
2022-11-27T02:21:49.795Z,2.77
2022-11-27T02:24:33.893Z,2.71
2022-11-27T02:27:42.976Z,2.76
2022-11-27T02:30:18.091Z,2.57
2022-11-27T02:32:56.481Z,2.51
2022-11-27T02:35:52.309Z,2.73
2022-11-27T02:38:27.932Z,2.66
2022-11-27T02:41:06.766Z,2.62
2022-11-27T02:43:45.288Z,2.46
2022-11-27T02:46:14.243Z,2.65
2022-11-27T02:48:56.764Z,2.55
2022-11-27T02:51:37.702Z,2.49
2022-11-27T02:54:08.568Z,2.52
2022-11-27T02:56:39.743Z,2.49
2022-11-27T02:59:09.460Z,2.28
2022-11-27T03:01:44.970Z,2.37
2022-11-27T03:04:18.040Z,2.53
2022-11-27T03:06:52.062Z,2.54
2022-11-27T03:09:27.094Z,2.49
2022-11-27T03:12:00.510Z,2.40
2022-11-27T03:14:28.503Z,2.39
2022-11-27T03:17:17.709Z,2.36
2022-11-27T03:20:11.096Z,2.05
2022-11-27T03:22:38.689Z,2.06
2022-11-27T03:25:12.550Z,2.07
2022-11-27T03:27:48.693Z,2.17
2022-11-27T03:30:24.989Z,2.24
2022-11-27T03:32:55.693Z,2.36
2022-11-27T03:35:27.345Z,2.27
2022-11-27T03:37:55.992Z,2.11
2022-11-27T03:40:59.134Z,2.14
2022-11-27T03:43:35.867Z,2.07
2022-11-27T03:46:32.197Z,2.42
2022-11-27T03:49:11.789Z,2.37
2022-11-27T03:51:58.376Z,2.32
2022-11-27T03:54:50.366Z,2.46
2022-11-27T03:57:28.927Z,2.36
2022-11-27T04:00:08.193Z,2.44
2022-11-27T04:02:47.615Z,2.48
2022-11-27T04:05:22.367Z,2.41
2022-11-27T04:07:56.834Z,2.43
2022-11-27T04:10:27.017Z,2.39
2022-11-27T04:12:58.117Z,2.21
2022-11-27T04:15:28.226Z,2.14
2022-11-27T04:17:57.501Z,2.22
2022-11-27T04:20:34.689Z,2.21
2022-11-27T04:23:07.968Z,2.23
2022-11-27T04:25:38.516Z,2.30
2022-11-27T04:28:11.749Z,2.19
2022-11-27T04:30:41.581Z,2.35
2022-11-27T04:33:14.633Z,2.34
2022-11-27T04:35:45.159Z,2.24
2022-11-27T04:38:21.707Z,2.30
2022-11-27T04:40:53.762Z,2.40
2022-11-27T04:43:24.543Z,2.33
2022-11-27T04:45:54.687Z,2.36
2022-11-27T04:48:26.335Z,2.28
2022-11-27T04:50:56.907Z,2.31
2022-11-27T04:53:26.302Z,2.21
2022-11-27T04:55:56.589Z,2.23
2022-11-27T04:58:34.381Z,2.17
2022-11-27T05:01:04.679Z,2.33
2022-11-27T05:03:38.933Z,2.31
2022-11-27T05:06:09.845Z,2.54
2022-11-27T05:08:43.655Z,6.04
2022-11-27T05:11:14.927Z,10.09
2022-11-27T05:13:43.701Z,10.04
2022-11-27T05:16:17.240Z,10.33
2022-11-27T05:18:51.052Z,11.24
2022-11-27T05:21:18.860Z,11.52
2022-11-27T05:23:59.808Z,10.48
2022-11-27T05:26:36.873Z,9.27
2022-11-27T05:29:12.176Z,8.19
2022-11-27T05:31:46.515Z,6.70
2022-11-27T05:34:18.301Z,4.26
2022-11-27T05:36:52.398Z,3.57
2022-11-27T05:39:20.594Z,3.29
2022-11-27T05:41:53.954Z,3.22
2022-11-27T05:44:21.846Z,3.03
2022-11-27T05:46:59.324Z,2.75
2022-11-27T05:49:29.139Z,3.13
2022-11-27T05:51:56.755Z,2.71
2022-11-27T05:54:27.257Z,2.78
2022-11-27T05:57:00.443Z,2.40
2022-11-27T05:59:36.626Z,2.34
2022-11-27T06:02:07.404Z,2.44
2022-11-27T06:04:39.238Z,2.22
2022-11-27T06:07:11.406Z,2.41
2022-11-27T06:09:45.433Z,2.32
2022-11-27T06:12:16.174Z,2.16
2022-11-27T06:14:49.039Z,2.22
2022-11-27T06:17:19.893Z,2.19
2022-11-27T06:19:50.040Z,2.41
2022-11-27T06:22:20.292Z,2.29
2022-11-27T06:24:55.018Z,2.23
2022-11-27T06:27:25.865Z,2.45
2022-11-27T06:29:58.640Z,2.52
2022-11-27T06:32:32.203Z,2.58
2022-11-27T06:35:06.504Z,2.52
2022-11-27T06:37:36.612Z,2.56
2022-11-27T06:40:10.590Z,2.74
2022-11-27T06:42:45.952Z,2.77
2022-11-27T06:45:30.406Z,2.54
2022-11-27T06:48:08.693Z,2.66
2022-11-27T06:50:41.234Z,3.02
2022-11-27T06:53:21.601Z,2.75
2022-11-27T06:55:54.676Z,3.03
2022-11-27T06:58:27.778Z,2.82
2022-11-27T07:01:04.009Z,2.92
2022-11-27T07:03:40.462Z,2.84
2022-11-27T07:06:12.725Z,2.90
2022-11-27T07:08:43.910Z,2.83
2022-11-27T07:11:19.274Z,3.09
2022-11-27T07:13:51.320Z,3.15
2022-11-27T07:16:25.463Z,3.29
2022-11-27T07:19:01.913Z,3.35
2022-11-27T07:21:36.326Z,3.28
2022-11-27T07:24:10.884Z,3.02
2022-11-27T07:26:45.272Z,3.05
2022-11-27T07:29:19.753Z,3.06
2022-11-27T07:31:50.680Z,3.06
2022-11-27T07:34:22.047Z,3.03
2022-11-27T07:36:49.326Z,3.17
2022-11-27T07:39:39.454Z,3.26
2022-11-27T07:42:36.809Z,3.33
2022-11-27T07:45:04.947Z,3.30
2022-11-27T07:47:35.193Z,3.34
2022-11-27T07:50:09.854Z,3.51
2022-11-27T07:52:41.760Z,3.53
2022-11-27T07:55:09.867Z,3.50
2022-11-27T07:57:43.047Z,3.36
2022-11-27T08:00:16.275Z,3.55
2022-11-27T08:02:49.880Z,3.57
2022-11-27T08:05:20.706Z,3.73
2022-11-27T08:07:59.319Z,3.71
2022-11-27T08:10:30.260Z,3.86
2022-11-27T08:13:04.298Z,3.80
2022-11-27T08:15:37.659Z,3.83
2022-11-27T08:18:08.191Z,3.93
2022-11-27T08:20:39.655Z,4.34
2022-11-27T08:23:09.642Z,4.12
2022-11-27T08:25:40.773Z,4.00
2022-11-27T08:28:12.153Z,4.11
2022-11-27T08:30:42.722Z,4.58
2022-11-27T08:33:16.077Z,4.35
2022-11-27T08:35:48.538Z,4.27
2022-11-27T08:38:22.155Z,4.14
2022-11-27T08:41:08.999Z,4.44
2022-11-27T08:43:36.725Z,4.19
2022-11-27T08:46:13.420Z,4.32
2022-11-27T08:48:47.302Z,4.45
2022-11-27T08:51:19.206Z,4.85
2022-11-27T08:53:53.314Z,4.59
2022-11-27T08:56:25.623Z,4.61
2022-11-27T08:59:02.832Z,4.69
2022-11-27T09:01:39.148Z,4.80
2022-11-27T09:04:09.391Z,4.61
2022-11-27T09:06:43.943Z,4.63
2022-11-27T09:09:15.067Z,4.58
2022-11-27T09:11:45.705Z,4.73
2022-11-27T09:14:23.658Z,4.70
2022-11-27T09:16:57.686Z,4.67
2022-11-27T09:19:32.170Z,4.86
2022-11-27T09:22:00.665Z,4.91
2022-11-27T09:24:30.099Z,4.77
2022-11-27T09:26:57.420Z,4.81
2022-11-27T09:29:26.366Z,4.77
2022-11-27T09:31:56.958Z,4.79
2022-11-27T09:34:34.609Z,4.89
2022-11-27T09:37:08.581Z,4.96
2022-11-27T09:39:43.957Z,5.13
2022-11-27T09:42:47.368Z,5.09
2022-11-27T09:45:16.413Z,5.07
2022-11-27T09:47:54.770Z,5.05
2022-11-27T09:50:36.856Z,5.39
2022-11-27T09:53:20.244Z,5.32
2022-11-27T09:55:55.434Z,5.27
2022-11-27T09:58:42.920Z,5.31
2022-11-27T10:01:19.478Z,5.54
2022-11-27T10:03:47.151Z,5.44
2022-11-27T10:06:24.786Z,5.35
2022-11-27T10:08:55.187Z,5.32
2022-11-27T10:11:40.655Z,5.33
2022-11-27T10:14:46.103Z,5.40
2022-11-27T10:17:31.794Z,5.50
2022-11-27T10:20:11.368Z,5.43
2022-11-27T10:23:36.396Z,5.56
2022-11-27T10:26:43.527Z,5.53
2022-11-27T10:29:55.845Z,5.36
2022-11-27T10:32:54.579Z,5.46
2022-11-27T10:35:32.969Z,5.64
2022-11-27T10:38:41.353Z,5.62
2022-11-27T10:41:49.245Z,5.76
2022-11-27T10:44:31.591Z,5.91
2022-11-27T10:47:27.476Z,5.99
2022-11-27T10:50:03.306Z,5.88
2022-11-27T10:52:51.032Z,6.02
2022-11-27T10:55:39.956Z,6.17
2022-11-27T10:58:29.075Z,6.13
2022-11-27T11:01:14.522Z,6.24
2022-11-27T11:03:45.874Z,6.36
2022-11-27T11:06:25.487Z,6.22
2022-11-27T11:09:22.377Z,6.30
2022-11-27T11:12:09.939Z,6.46
2022-11-27T11:14:50.999Z,6.38
2022-11-27T11:17:44.714Z,6.45
2022-11-27T11:20:24.502Z,6.52
2022-11-27T11:23:01.431Z,6.41
2022-11-27T11:25:42.683Z,6.52
2022-11-27T11:28:29.337Z,6.42
2022-11-27T11:31:23.507Z,6.76
2022-11-27T11:34:23.182Z,6.60
2022-11-27T11:37:08.099Z,6.51
2022-11-27T11:40:13.177Z,6.54
2022-11-27T11:43:05.947Z,6.62
2022-11-27T11:45:48.112Z,6.68
2022-11-27T11:48:27.421Z,6.61
2022-11-27T11:51:17.703Z,6.74
2022-11-27T11:54:26.179Z,6.84
2022-11-27T11:57:05.670Z,6.70
2022-11-27T12:00:07.497Z,6.67
2022-11-27T12:03:05.993Z,6.68
2022-11-27T12:05:55.136Z,6.72
2022-11-27T12:08:53.708Z,6.77
2022-11-27T12:11:51.034Z,6.76
2022-11-27T12:14:52.339Z,6.53
2022-11-27T12:17:40.642Z,6.60
2022-11-27T12:20:17.404Z,6.60
2022-11-27T12:23:18.920Z,6.68
2022-11-27T12:26:25.888Z,6.77
2022-11-27T12:29:25.759Z,6.68
2022-11-27T12:32:20.427Z,6.87
2022-11-27T12:35:27.551Z,6.83
2022-11-27T12:38:08.917Z,6.80
2022-11-27T12:40:50.940Z,6.84
2022-11-27T12:43:36.515Z,6.93
2022-11-27T12:46:15.318Z,6.85
2022-11-27T12:49:31.149Z,6.76
2022-11-27T12:52:21.090Z,6.82
2022-11-27T12:55:18.108Z,6.81
2022-11-27T12:57:55.011Z,6.82
2022-11-27T13:00:47.582Z,6.75
2022-11-27T13:03:30.727Z,6.81
2022-11-27T13:06:06.283Z,6.74
2022-11-27T13:08:55.451Z,6.71
2022-11-27T13:11:40.399Z,6.68
2022-11-27T13:14:12.364Z,6.68
2022-11-27T13:16:44.179Z,6.57
2022-11-27T13:19:23.683Z,6.60
2022-11-27T13:21:57.722Z,6.61
2022-11-27T13:24:27.059Z,6.62
2022-11-27T13:27:09.382Z,6.55
2022-11-27T13:30:06.958Z,6.54
2022-11-27T13:32:57.757Z,6.62
2022-11-27T13:35:39.614Z,6.62
2022-11-27T13:38:26.192Z,6.55
2022-11-27T13:40:59.317Z,6.61
2022-11-27T13:43:42.807Z,6.66
2022-11-27T13:46:18.344Z,6.55
2022-11-27T13:49:05.959Z,6.52
2022-11-27T13:51:36.703Z,6.53
2022-11-27T13:54:14.526Z,6.55
2022-11-27T13:56:51.279Z,6.57
2022-11-27T13:59:25.552Z,6.55
2022-11-27T14:02:04.427Z,6.42
2022-11-27T14:04:52.948Z,6.34
2022-11-27T14:07:36.502Z,6.42
2022-11-27T14:10:13.573Z,6.43
2022-11-27T14:13:08.525Z,6.48
2022-11-27T14:15:57.931Z,6.49
2022-11-27T14:18:27.400Z,6.37
2022-11-27T14:21:00.638Z,6.40
2022-11-27T14:23:48.762Z,6.48
2022-11-27T14:26:23.058Z,6.55
2022-11-27T14:28:57.063Z,6.51
2022-11-27T14:31:34.748Z,6.49
2022-11-27T14:34:16.106Z,6.52
2022-11-27T14:36:52.881Z,6.39
2022-11-27T14:39:32.448Z,6.41
2022-11-27T14:42:04.716Z,6.39
2022-11-27T14:44:38.783Z,6.49
2022-11-27T14:47:22.627Z,6.60
2022-11-27T14:49:57.079Z,6.47
2022-11-27T14:52:28.286Z,6.36
2022-11-27T14:55:01.164Z,6.34
2022-11-27T14:57:35.889Z,6.42
2022-11-27T15:00:12.264Z,6.37
2022-11-27T15:02:42.764Z,6.28
2022-11-27T15:05:28.888Z,6.32
2022-11-27T15:08:04.533Z,6.28
2022-11-27T15:10:41.932Z,6.24
2022-11-27T15:13:25.200Z,6.21
2022-11-27T15:16:04.854Z,6.85
2022-11-27T15:18:37.416Z,11.76
2022-11-27T15:21:18.894Z,8.91
2022-11-27T15:23:53.378Z,7.60
2022-11-27T15:26:36.483Z,7.33
2022-11-27T15:29:35.852Z,6.77
2022-11-27T15:32:24.847Z,6.70
2022-11-27T15:34:55.428Z,6.57
2022-11-27T15:37:35.138Z,6.41
2022-11-27T15:40:22.874Z,6.26
2022-11-27T15:42:54.932Z,6.22
2022-11-27T15:45:31.620Z,6.34
2022-11-27T15:48:03.991Z,8.64
2022-11-27T15:50:41.045Z,12.44
2022-11-27T15:53:17.154Z,9.65
2022-11-27T15:55:47.864Z,8.12
2022-11-27T15:58:21.351Z,7.54
2022-11-27T16:00:51.389Z,7.04
2022-11-27T16:03:28.757Z,6.86
2022-11-27T16:06:05.972Z,6.79
2022-11-27T16:08:34.919Z,6.62
2022-11-27T16:11:05.598Z,6.56
2022-11-27T16:13:40.039Z,6.47
2022-11-27T16:16:16.930Z,6.29
2022-11-27T16:18:49.087Z,6.29
2022-11-27T16:21:17.914Z,6.26
2022-11-27T16:23:45.197Z,6.24
2022-11-27T16:26:14.105Z,6.16
2022-11-27T16:28:45.806Z,6.21
2022-11-27T16:31:13.124Z,6.22
2022-11-27T16:33:47.491Z,6.18
2022-11-27T16:36:22.505Z,6.20
2022-11-27T16:38:55.021Z,6.17
2022-11-27T16:41:31.960Z,6.23
2022-11-27T16:44:02.491Z,6.19
2022-11-27T16:46:33.644Z,6.25
2022-11-27T16:49:04.648Z,6.17
2022-11-27T16:51:33.698Z,6.13
2022-11-27T16:54:04.340Z,6.15
2022-11-27T16:56:32.756Z,6.13
2022-11-27T16:59:11.823Z,6.14
2022-11-27T17:01:49.006Z,6.13
2022-11-27T17:04:23.137Z,6.27
2022-11-27T17:06:53.914Z,6.24
2022-11-27T17:12:19.209Z,6.03
2022-11-27T17:14:56.504Z,6.02
2022-11-27T17:17:23.919Z,6.00
2022-11-27T17:20:00.523Z,5.93
2022-11-27T17:22:34.321Z,5.95
2022-11-27T17:25:05.891Z,5.93
2022-11-27T17:27:33.615Z,5.84
2022-11-27T17:30:09.276Z,5.84
2022-11-27T17:32:45.086Z,5.98
2022-11-27T17:35:18.853Z,5.95
2022-11-27T17:37:50.193Z,6.03
2022-11-27T17:40:23.816Z,5.93
2022-11-27T17:42:57.139Z,5.89
2022-11-27T17:45:27.368Z,5.99
2022-11-27T17:48:04.598Z,6.02
2022-11-27T17:50:41.104Z,6.19
2022-11-27T17:53:11.681Z,6.11
2022-11-27T17:55:44.374Z,6.19
2022-11-27T17:58:12.549Z,6.11
2022-11-27T18:00:46.202Z,6.03
2022-11-27T18:03:19.280Z,6.01
2022-11-27T18:05:47.510Z,6.02
2022-11-27T18:08:15.159Z,5.94
2022-11-27T18:10:48.920Z,5.96
2022-11-27T18:13:27.586Z,5.90
2022-11-27T18:16:03.626Z,5.97
2022-11-27T18:18:36.789Z,6.03
2022-11-27T18:21:16.822Z,6.01
2022-11-27T18:24:21.226Z,5.98
2022-11-27T18:27:07.112Z,6.03
2022-11-27T18:29:33.996Z,6.09
2022-11-27T18:32:07.945Z,6.00
2022-11-27T18:34:38.033Z,5.88
2022-11-27T18:37:09.902Z,5.84
2022-11-27T18:39:44.057Z,5.95
2022-11-27T18:42:15.678Z,5.79
2022-11-27T18:44:45.069Z,5.77
2022-11-27T18:47:24.918Z,5.82
2022-11-27T18:49:56.593Z,5.68
2022-11-27T18:52:29.467Z,5.54
2022-11-27T18:54:56.782Z,5.66
2022-11-27T18:57:31.328Z,5.52
2022-11-27T19:00:03.178Z,5.65
2022-11-27T19:02:34.163Z,5.69
2022-11-27T19:05:05.576Z,5.57
2022-11-27T19:07:33.020Z,5.56
2022-11-27T19:10:09.243Z,5.51
2022-11-27T19:12:36.578Z,5.54
2022-11-27T19:15:04.302Z,5.59
2022-11-27T19:17:32.569Z,5.57
2022-11-27T19:20:00.491Z,5.49
2022-11-27T19:22:41.508Z,5.53
2022-11-27T19:25:12.211Z,5.60
2022-11-27T19:27:39.578Z,5.51
2022-11-27T19:30:16.609Z,5.59
2022-11-27T19:32:43.886Z,5.77
2022-11-27T19:35:11.873Z,5.69
2022-11-27T19:37:39.186Z,5.65
2022-11-27T19:40:12.858Z,5.53
2022-11-27T19:42:40.239Z,5.47
2022-11-27T19:45:10.565Z,5.49
2022-11-27T19:47:41.685Z,5.48
2022-11-27T19:50:12.746Z,5.42
2022-11-27T19:52:41.015Z,5.49
2022-11-27T19:55:09.183Z,5.48
2022-11-27T19:57:37.876Z,5.47
2022-11-27T20:00:06.981Z,5.45
2022-11-27T20:02:40.412Z,5.47
2022-11-27T20:05:11.158Z,5.37
2022-11-27T20:07:39.023Z,5.36
2022-11-27T20:10:09.813Z,5.43
2022-11-27T20:12:44.822Z,5.46
2022-11-27T20:15:15.108Z,5.45
2022-11-27T20:17:43.116Z,5.51
2022-11-27T20:20:13.266Z,5.54
2022-11-27T20:22:41.361Z,5.47
2022-11-27T20:25:19.596Z,5.52
2022-11-27T20:27:50.520Z,5.49
2022-11-27T20:30:23.860Z,5.45
2022-11-27T20:32:54.854Z,5.49
2022-11-27T20:35:31.783Z,5.71
2022-11-27T20:37:58.930Z,5.72
2022-11-27T20:40:31.921Z,5.60
2022-11-27T20:43:02.488Z,5.43
2022-11-27T20:45:35.899Z,5.42
2022-11-27T20:48:07.782Z,5.34
2022-11-27T20:50:39.740Z,5.26
2022-11-27T20:53:10.314Z,5.28
2022-11-27T20:55:40.332Z,5.32
2022-11-27T20:58:11.859Z,5.36
2022-11-27T21:00:41.784Z,5.34
2022-11-27T21:03:12.183Z,5.44
2022-11-27T21:05:45.085Z,5.34
2022-11-27T21:08:14.992Z,5.34
2022-11-27T21:10:45.471Z,5.21
2022-11-27T21:13:15.473Z,5.38
2022-11-27T21:15:48.974Z,5.46
2022-11-27T21:18:19.239Z,5.50
2022-11-27T21:20:46.388Z,5.44
2022-11-27T21:23:16.603Z,5.37
2022-11-27T21:25:49.405Z,5.44
2022-11-27T21:28:19.797Z,5.45
2022-11-27T21:30:50.873Z,5.45
2022-11-27T21:33:21.103Z,5.40
2022-11-27T21:35:55.102Z,5.36
2022-11-27T21:38:28.696Z,5.17
2022-11-27T21:40:56.716Z,5.29
2022-11-27T21:43:24.351Z,5.34
2022-11-27T21:45:52.053Z,5.31
2022-11-27T21:48:22.567Z,5.24
2022-11-27T21:51:01.073Z,5.41
2022-11-27T21:53:29.963Z,5.44
2022-11-27T21:56:04.445Z,5.44
2022-11-27T21:58:38.093Z,5.42
2022-11-27T22:01:09.385Z,5.35
2022-11-27T22:03:43.029Z,5.34
2022-11-27T22:06:18.078Z,5.17
2022-11-27T22:08:50.878Z,4.84
2022-11-27T22:11:22.351Z,4.75
2022-11-27T22:14:01.005Z,4.82
2022-11-27T22:16:33.033Z,5.07
2022-11-27T22:19:01.164Z,5.13
2022-11-27T22:21:35.572Z,5.29
2022-11-27T22:24:02.789Z,5.53
2022-11-27T22:26:33.270Z,5.58
2022-11-27T22:29:00.526Z,5.58
2022-11-27T22:31:32.131Z,5.75
2022-11-27T22:33:59.463Z,5.66
2022-11-27T22:36:32.755Z,5.56
2022-11-27T22:39:04.877Z,5.52
2022-11-27T22:41:37.253Z,5.43
2022-11-27T22:44:19.979Z,5.47
2022-11-27T22:46:48.265Z,5.38
2022-11-27T22:49:21.417Z,5.29
2022-11-27T22:51:48.630Z,5.23
2022-11-27T22:54:18.711Z,5.17
2022-11-27T22:56:46.802Z,5.36
2022-11-27T22:59:34.142Z,5.46
2022-11-27T23:02:08.285Z,5.44
2022-11-27T23:04:41.663Z,5.75
2022-11-27T23:07:09.847Z,5.56
2022-11-27T23:09:40.305Z,5.46
2022-11-27T23:12:13.552Z,5.32
2022-11-27T23:14:41.137Z,5.44
2022-11-27T23:17:11.448Z,5.48
2022-11-27T23:19:38.667Z,5.34
2022-11-27T23:22:08.558Z,5.18
2022-11-27T23:24:42.490Z,5.17
2022-11-27T23:27:12.993Z,5.22
2022-11-27T23:29:42.721Z,5.15
2022-11-27T23:32:09.924Z,5.15
2022-11-27T23:34:37.102Z,5.11
2022-11-27T23:37:04.269Z,5.15
2022-11-27T23:39:31.361Z,5.16
2022-11-27T23:41:58.905Z,5.11
2022-11-27T23:44:26.299Z,5.18
2022-11-27T23:46:53.863Z,5.22
2022-11-27T23:49:21.057Z,5.22
2022-11-27T23:51:48.179Z,5.19
2022-11-27T23:54:15.325Z,5.28
2022-11-27T23:56:42.883Z,5.25
2022-11-27T23:59:10.395Z,5.06
